Flight Track Log - Related Links

Times and Time Zones

All times are in EDT time to prevent confusion due to time zone crossing. See the N931PC flight status page for this flight to view local times or setup timezone preferences in your user account.

Time Position Orientation Groundspeed Altitude Reporting Facility
EDT Latitude Longitude Course Direction KTS MPH feet Rate Location/Type
Fri 12:07:03 PM 38.5833 -90.2167 218° Southwest 103 119 1,800  Level Gateway (St. Louis) TRACON
Fri 12:08:03 PM 38.5500 -90.2333 201° Southwest 114 131 2,400 632 Climbing Gateway (St. Louis) TRACON
Fri 12:08:57 PM 38.5333 -90.2500 218° Southwest 118 136 3,000 595 Climbing Gateway (St. Louis) TRACON
Fri 12:10:04 PM 38.5000 -90.2667 201° Southwest 123 142 3,600 472 Climbing Gateway (St. Louis) TRACON
Fri 12:11:04 PM 38.4667 -90.2833 201° Southwest 129 148 4,000 474 Climbing Gateway (St. Louis) TRACON
Fri 12:11:58 PM 38.4333 -90.3000 201° Southwest 132 152 4,500 500 Climbing Gateway (St. Louis) TRACON
Fri 12:12:00 PM 38.3647 -90.3688 218° Southwest  Level FlightAware Approximate
Fri 12:12:52 PM 38.4000 -90.3333 218° Southwest 126 145 4,900  Level Gateway (St. Louis) TRACON
Fri 12:13:29 PM 38.3939 -90.3483 243° Southwest 126 145 5,100 424 Climbing Kansas City Center
Fri 12:14:31 PM 38.3658 -90.3783 220° Southwest 129 148 5,600 484 Climbing Kansas City Center
Fri 12:15:33 PM 38.3392 -90.4078 221° Southwest 128 147 6,100 435 Climbing Kansas City Center
Fri 12:16:35 PM 38.3111 -90.4378 220° Southwest 130 150 6,500 339 Climbing Kansas City Center
Fri 12:17:37 PM 38.2839 -90.4672 220° Southwest 129 148 6,800 387 Climbing Kansas City Center
Fri 12:18:39 PM 38.2492 -90.5017 218° Southwest 131 151 7,300 435 Climbing Kansas City Center
Fri 12:19:41 PM 38.2217 -90.5328 222° Southwest 132 152 7,700 339 Climbing Kansas City Center
Fri 12:20:43 PM 38.1931 -90.5619 219° Southwest 132 152 8,000 145 Climbing Kansas City Center
Fri 12:21:45 PM 38.1639 -90.5964 223° Southwest 140 161 8,000  Level Kansas City Center
Fri 12:22:48 PM 38.1319 -90.6319 221° Southwest 149 171 8,000  Level Kansas City Center
Fri 12:23:50 PM 38.0978 -90.6697 221° Southwest 159 183 8,000  Level Kansas City Center
Fri 12:24:52 PM 38.0589 -90.7108 220° Southwest 152 175 8,000  Level Kansas City Center
Fri 12:25:54 PM 38.0233 -90.7481 220° Southwest 162 186 8,000  Level Kansas City Center
Fri 12:26:56 PM 37.9900 -90.7842 220° Southwest 160 184 8,000  Level Kansas City Center
Fri 12:27:58 PM 37.9556 -90.8211 220° Southwest 160 184 8,000  Level Kansas City Center
Fri 12:29:00 PM 37.9225 -90.8583 222° Southwest 160 184 8,000  Level Kansas City Center
Fri 12:30:02 PM 37.8872 -90.8936 218° Southwest 161 185 8,000  Level Kansas City Center
Fri 12:31:04 PM 37.8486 -90.9375 222° Southwest 157 181 8,000  Level Kansas City Center
Fri 12:32:06 PM 37.8136 -90.9725 218° Southwest 159 183 8,000  Level Kansas City Center
Fri 12:33:08 PM 37.7792 -91.0092 220° Southwest 160 184 8,000  Level Kansas City Center
Fri 12:34:10 PM 37.7439 -91.0453 219° Southwest 162 186 8,000  Level Kansas City Center
Fri 12:35:12 PM 37.7103 -91.0839 222° Southwest 162 186 8,000  Level Kansas City Center
Fri 12:36:14 PM 37.6683 -91.1283 220° Southwest 163 188 8,000  Level Kansas City Center
Fri 12:37:16 PM 37.6331 -91.1656 220° Southwest 163 188 8,000  Level Kansas City Center
Fri 12:38:18 PM 37.5969 -91.2036 220° Southwest 165 190 8,000  Level Kansas City Center
Fri 12:39:20 PM 37.5619 -91.2403 220° Southwest 165 190 8,000  Level Kansas City Center
Fri 12:40:22 PM 37.5261 -91.2792 221° Southwest 167 192 8,000  Level Kansas City Center
Fri 12:41:24 PM 37.4908 -91.3153 219° Southwest 164 189 8,000  Level Kansas City Center
Fri 12:42:26 PM 37.4561 -91.3525 220° Southwest 163 188 8,000  Level Kansas City Center
Fri 12:43:28 PM 37.4133 -91.3975 220° Southwest 166 191 8,000  Level Kansas City Center
Fri 12:44:30 PM 37.3772 -91.4350 220° Southwest 167 192 8,000  Level Kansas City Center
Fri 12:45:32 PM 37.3400 -91.4733 219° Southwest 170 196 8,000  Level Kansas City Center
Fri 12:46:34 PM 37.3042 -91.5117 220° Southwest 170 196 8,000  Level Kansas City Center
Fri 12:47:36 PM 37.2683 -91.5486 219° Southwest 167 192 8,000  Level Kansas City Center
Fri 12:48:38 PM 37.2314 -91.5889 221° Southwest 173 199 8,000  Level Kansas City Center
Fri 12:49:40 PM 37.1931 -91.6289 220° Southwest 176 203 8,000  Level Kansas City Center
Fri 12:50:42 PM 37.1489 -91.6756 220° Southwest 174 200 8,000  Level Kansas City Center
Fri 12:51:44 PM 37.1111 -91.7136 219° Southwest 174 200 8,000 48 Level Kansas City Center
Fri 12:52:47 PM 37.0747 -91.7497 218° Southwest 169 194 8,100 48 Climbing Kansas City Center
Fri 12:53:49 PM 37.0381 -91.7892 221° Southwest 171 197 8,100  Level Kansas City Center
Fri 12:54:51 PM 36.9997 -91.8308 221° Southwest 176 203 8,100  Level Kansas City Center
Fri 12:55:53 PM 36.9617 -91.8694 219° Southwest 177 204 8,100  Level Kansas City Center
Fri 12:56:55 PM 36.9244 -91.9075 219° Southwest 175 201 8,100  Level Kansas City Center
Fri 12:57:57 PM 36.8808 -91.9522 219° Southwest 172 198 8,100 -145 Level Kansas City Center
Fri 12:58:59 PM 36.8425 -91.9900 218° Southwest 173 199 7,800 -242 Descending Kansas City Center
Fri 01:00:01 PM 36.8019 -92.0294 218° Southwest 177 204 7,600 -194 Descending Kansas City Center
Fri 01:01:03 PM 36.7628 -92.0725 221° Southwest 181 208 7,400 -339 Descending Kansas City Center
Fri 01:02:05 PM 36.7219 -92.1161 221° Southwest 185 213 6,900 -532 Descending Kansas City Center
Fri 01:03:07 PM 36.6800 -92.1603 220° Southwest 191 220 6,300 -726 Descending Kansas City Center
Fri 01:04:09 PM 36.6372 -92.2042 219° Southwest 194 223 5,400 -919 Descending Kansas City Center
Fri 01:05:11 PM 36.5814 -92.2508 214° Southwest 200 230 4,400 -968 Descending Kansas City Center

Login

Don't have an account? Register now (free) for customized features, flight alerts, and more!